createdAt,value
2022-09-02T00:01:59.849Z,54.90
2022-09-02T00:04:27.629Z,55.08
2022-09-02T00:06:54.987Z,55.09
2022-09-02T00:09:24.009Z,55.21
2022-09-02T00:11:52.398Z,54.99
2022-09-02T00:14:24.829Z,55.94
2022-09-02T00:16:51.807Z,55.17
2022-09-02T00:19:22.222Z,55.58
2022-09-02T00:21:49.889Z,55.21
2022-09-02T00:24:17.158Z,55.37
2022-09-02T00:26:44.581Z,55.49
2022-09-02T00:29:12.112Z,55.41
2022-09-02T00:31:39.115Z,55.41
2022-09-02T00:34:05.976Z,55.59
2022-09-02T00:36:33.969Z,55.58
2022-09-02T00:39:00.733Z,55.63
2022-09-02T00:41:29.153Z,55.88
2022-09-02T00:43:55.831Z,55.74
2022-09-02T00:46:25.036Z,55.95
2022-09-02T00:49:17.263Z,57.17
2022-09-02T00:51:53.122Z,56.80
2022-09-02T00:54:22.553Z,56.16
2022-09-02T00:56:55.756Z,56.29
2022-09-02T00:59:51.046Z,57.79
2022-09-02T01:02:18.803Z,56.28
2022-09-02T01:04:45.633Z,56.27
2022-09-02T01:07:12.620Z,56.43
2022-09-02T01:09:40.220Z,56.34
2022-09-02T01:12:07.881Z,56.50
2022-09-02T01:14:35.242Z,56.76
2022-09-02T01:17:03.021Z,56.39
2022-09-02T01:19:37.475Z,57.72
2022-09-02T01:22:15.637Z,57.39
2022-09-02T01:24:42.441Z,56.55
2022-09-02T01:27:09.324Z,56.62
2022-09-02T01:29:36.496Z,56.67
2022-09-02T01:32:03.609Z,56.59
2022-09-02T01:34:31.759Z,56.71
2022-09-02T01:36:58.544Z,56.60
2022-09-02T01:39:25.536Z,56.61
2022-09-02T01:41:52.516Z,56.65
2022-09-02T01:44:19.354Z,56.65
2022-09-02T01:46:49.221Z,56.78
2022-09-02T01:49:16.008Z,56.70
2022-09-02T01:51:43.429Z,56.94
2022-09-02T01:54:11.050Z,56.80
2022-09-02T01:56:38.393Z,56.83
2022-09-02T01:59:05.553Z,57.04
2022-09-02T02:01:32.428Z,57.08
2022-09-02T02:03:59.860Z,57.28
2022-09-02T02:06:27.020Z,57.48
2022-09-02T02:08:54.847Z,57.59
2022-09-02T02:11:25.239Z,58.41
2022-09-02T02:13:57.142Z,57.81
2022-09-02T02:16:24.322Z,57.88
2022-09-02T02:18:51.253Z,57.92
2022-09-02T02:21:19.110Z,57.88
2022-09-02T02:23:47.745Z,58.05
2022-09-02T02:26:14.444Z,57.95
2022-09-02T02:28:41.410Z,58.18
2022-09-02T02:31:09.432Z,57.95
2022-09-02T02:33:36.801Z,58.09
2022-09-02T02:36:05.822Z,59.14
2022-09-02T02:38:37.422Z,59.16
2022-09-02T02:41:04.634Z,57.97
2022-09-02T02:43:31.334Z,58.19
2022-09-02T02:45:58.144Z,58.27
2022-09-02T02:48:25.398Z,58.48
2022-09-02T02:50:52.458Z,58.26
2022-09-02T02:53:19.330Z,58.55
2022-09-02T02:55:49.813Z,58.65
2022-09-02T02:58:18.525Z,58.76
2022-09-02T03:00:48.744Z,58.93
2022-09-02T03:03:17.113Z,58.81
2022-09-02T03:05:44.117Z,58.94
2022-09-02T03:08:11.373Z,59.07
2022-09-02T03:10:40.499Z,59.18
2022-09-02T03:13:09.445Z,59.12
2022-09-02T03:15:39.220Z,59.43
2022-09-02T03:18:06.296Z,59.32
2022-09-02T03:20:33.804Z,59.30
2022-09-02T03:23:03.916Z,59.70
2022-09-02T03:25:36.123Z,59.62
2022-09-02T03:28:11.515Z,59.67
2022-09-02T03:30:39.740Z,59.71
2022-09-02T03:33:07.232Z,59.68
2022-09-02T03:35:39.602Z,60.99
2022-09-02T03:38:07.695Z,59.61
2022-09-02T03:40:35.151Z,59.58
2022-09-02T03:43:03.119Z,59.58
2022-09-02T03:45:31.265Z,59.61
2022-09-02T03:48:03.435Z,59.84
2022-09-02T03:50:37.386Z,60.64
2022-09-02T03:53:05.052Z,59.58
2022-09-02T03:55:32.100Z,59.89
2022-09-02T03:57:59.050Z,59.78
2022-09-02T04:00:27.292Z,59.91
2022-09-02T04:02:55.022Z,59.95
2022-09-02T04:05:22.948Z,59.92
2022-09-02T04:07:53.039Z,60.24
2022-09-02T04:10:21.402Z,60.01
2022-09-02T04:12:51.490Z,60.07
2022-09-02T04:15:19.964Z,60.21
2022-09-02T04:17:49.299Z,60.28
2022-09-02T04:20:19.253Z,60.07
2022-09-02T04:22:46.074Z,60.36
2022-09-02T04:25:13.735Z,60.32
2022-09-02T04:27:40.728Z,60.41
2022-09-02T04:30:09.337Z,60.42
2022-09-02T04:32:40.892Z,60.28
2022-09-02T04:35:09.415Z,60.38
2022-09-02T04:37:38.515Z,60.37
2022-09-02T04:40:06.140Z,60.45
2022-09-02T04:42:33.879Z,60.39
2022-09-02T04:45:00.628Z,60.39
2022-09-02T04:47:27.861Z,60.30
2022-09-02T04:49:55.647Z,60.47
2022-09-02T04:52:23.040Z,60.89
2022-09-02T04:54:50.503Z,60.82
2022-09-02T04:57:17.878Z,60.68
2022-09-02T04:59:45.180Z,60.66
2022-09-02T05:02:12.337Z,60.63
2022-09-02T05:04:40.137Z,60.89
2022-09-02T05:07:13.796Z,60.28
2022-09-02T05:09:44.558Z,60.47
2022-09-02T05:12:11.335Z,60.71
2022-09-02T05:14:44.807Z,60.82
2022-09-02T05:17:11.623Z,61.19
2022-09-02T05:19:42.154Z,61.09
2022-09-02T05:22:09.294Z,60.97
2022-09-02T05:24:39.794Z,61.19
2022-09-02T05:27:10.359Z,61.21
2022-09-02T05:29:37.401Z,61.18
2022-09-02T05:32:05.127Z,61.36
2022-09-02T05:34:33.235Z,61.48
2022-09-02T05:37:02.831Z,61.60
2022-09-02T05:39:31.735Z,61.49
2022-09-02T05:41:59.812Z,61.48
2022-09-02T05:44:26.624Z,61.70
2022-09-02T05:46:54.205Z,61.72
2022-09-02T05:49:21.036Z,61.79
2022-09-02T05:51:58.482Z,61.87
2022-09-02T05:54:35.847Z,62.17
2022-09-02T05:57:13.303Z,62.69
2022-09-02T05:59:45.367Z,61.99
2022-09-02T06:02:20.550Z,62.29
2022-09-02T06:04:49.634Z,62.15
2022-09-02T06:07:19.008Z,62.13
2022-09-02T06:09:48.843Z,62.15
2022-09-02T06:12:17.387Z,62.22
2022-09-02T06:14:44.767Z,62.07
2022-09-02T06:17:12.239Z,61.82
2022-09-02T06:19:45.710Z,62.12
2022-09-02T06:22:13.201Z,62.07
2022-09-02T06:24:42.050Z,62.08
2022-09-02T06:27:13.769Z,62.01
2022-09-02T06:29:45.864Z,62.10
2022-09-02T06:32:15.000Z,61.79
2022-09-02T06:34:42.104Z,61.75
2022-09-02T06:37:09.614Z,61.74
2022-09-02T06:39:40.093Z,61.63
2022-09-02T06:42:07.375Z,61.64
2022-09-02T06:44:44.522Z,61.69
2022-09-02T06:47:11.338Z,61.43
2022-09-02T06:49:38.226Z,61.50
2022-09-02T06:52:05.795Z,61.18
2022-09-02T06:54:36.214Z,61.10
2022-09-02T06:57:11.377Z,60.70
2022-09-02T06:59:38.727Z,60.28
2022-09-02T07:02:06.077Z,60.26
2022-09-02T07:04:34.090Z,60.52
2022-09-02T07:07:03.775Z,60.40
2022-09-02T07:09:34.319Z,60.04
2022-09-02T07:12:09.052Z,59.87
2022-09-02T07:14:42.493Z,59.44
2022-09-02T07:17:13.103Z,59.46
2022-09-02T07:19:39.862Z,59.46
2022-09-02T07:22:07.385Z,59.16
2022-09-02T07:24:39.988Z,59.04
2022-09-02T07:27:07.603Z,58.97
2022-09-02T07:29:35.132Z,58.69
2022-09-02T07:32:02.346Z,58.27
2022-09-02T07:34:29.806Z,58.52
2022-09-02T07:37:01.848Z,58.12
2022-09-02T07:39:30.249Z,57.78
2022-09-02T07:41:57.199Z,57.61
2022-09-02T07:44:24.402Z,57.99
2022-09-02T07:46:53.150Z,57.83
2022-09-02T07:49:24.110Z,57.55
2022-09-02T07:51:51.794Z,57.45
2022-09-02T07:54:23.536Z,57.31
2022-09-02T07:56:52.074Z,56.63
2022-09-02T07:59:19.681Z,56.71
2022-09-02T08:01:47.001Z,56.75
2022-09-02T08:04:14.745Z,56.87
2022-09-02T08:06:41.901Z,56.92
2022-09-02T08:09:10.673Z,56.38
2022-09-02T08:11:43.049Z,55.57
2022-09-02T08:14:12.298Z,55.59
2022-09-02T08:16:39.954Z,55.23
2022-09-02T08:19:08.358Z,55.02
2022-09-02T08:21:35.165Z,55.50
2022-09-02T08:24:02.236Z,55.31
2022-09-02T08:26:30.028Z,54.85
2022-09-02T08:28:57.093Z,54.13
2022-09-02T08:31:24.078Z,53.71
2022-09-02T08:33:50.791Z,53.43
2022-09-02T08:36:17.711Z,52.76
2022-09-02T08:38:44.594Z,53.13
2022-09-02T08:41:22.624Z,52.64
2022-09-02T08:43:52.570Z,53.09
2022-09-02T08:46:22.391Z,53.00
2022-09-02T08:49:15.044Z,52.64
2022-09-02T08:51:51.068Z,53.13
2022-09-02T08:54:51.603Z,52.72
2022-09-02T08:57:18.490Z,50.38
2022-09-02T08:59:45.305Z,51.21
2022-09-02T09:02:26.705Z,50.84
2022-09-02T09:05:20.241Z,50.22
2022-09-02T09:07:46.901Z,50.01
2022-09-02T09:10:36.042Z,50.26
2022-09-02T09:13:21.008Z,49.34
2022-09-02T09:15:47.785Z,49.78
2022-09-02T09:18:19.234Z,49.39
2022-09-02T09:20:46.757Z,48.49
2022-09-02T09:23:36.095Z,48.75
2022-09-02T09:26:16.693Z,48.69
2022-09-02T09:28:46.654Z,48.19
2022-09-02T09:31:17.692Z,48.38
2022-09-02T09:34:04.657Z,48.33
2022-09-02T09:36:40.636Z,47.55
2022-09-02T09:39:21.057Z,46.55
2022-09-02T09:41:49.416Z,46.00
2022-09-02T09:44:34.376Z,46.67
2022-09-02T09:47:02.386Z,45.31
2022-09-02T09:49:32.031Z,45.62
2022-09-02T09:51:59.202Z,45.38
2022-09-02T09:54:27.726Z,43.40
2022-09-02T09:56:55.802Z,43.54
2022-09-02T09:59:43.499Z,43.05
2022-09-02T10:02:27.559Z,43.49
2022-09-02T10:05:10.488Z,43.16
2022-09-02T10:07:40.521Z,43.39
2022-09-02T10:10:19.933Z,44.40
2022-09-02T10:12:49.351Z,44.45
2022-09-02T10:15:25.088Z,42.90
2022-09-02T10:18:05.123Z,43.89
2022-09-02T10:21:15.612Z,43.35
2022-09-02T10:24:21.055Z,42.27
2022-09-02T10:26:50.518Z,42.18
2022-09-02T10:29:35.479Z,42.31
2022-09-02T10:32:18.895Z,42.36
2022-09-02T10:35:25.488Z,42.56
2022-09-02T10:38:07.094Z,42.05
2022-09-02T10:41:18.823Z,42.66
2022-09-02T10:43:45.809Z,41.64
2022-09-02T10:46:18.045Z,40.51
2022-09-02T10:48:55.842Z,40.99
2022-09-02T10:51:59.548Z,42.32
2022-09-02T10:54:41.375Z,40.35
2022-09-02T10:57:26.671Z,39.66
2022-09-02T11:00:14.313Z,40.56
2022-09-02T11:03:13.195Z,40.33
2022-09-02T11:05:53.858Z,39.18
2022-09-02T11:08:41.047Z,38.63
2022-09-02T11:11:19.052Z,38.63
2022-09-02T11:13:57.696Z,37.51
2022-09-02T11:16:33.736Z,38.93
2022-09-02T11:19:07.355Z,39.24
2022-09-02T11:21:52.735Z,38.86
2022-09-02T11:24:31.314Z,38.49
2022-09-02T11:27:03.263Z,38.46
2022-09-02T11:29:37.141Z,38.95
2022-09-02T11:32:21.769Z,39.52
2022-09-02T11:34:55.808Z,39.00
2022-09-02T11:37:33.336Z,38.55
2022-09-02T11:40:33.400Z,38.68
2022-09-02T11:43:15.362Z,37.89
2022-09-02T11:46:06.313Z,38.44
2022-09-02T11:49:17.416Z,38.98
2022-09-02T11:51:58.704Z,37.88
2022-09-02T11:54:33.416Z,36.33
2022-09-02T11:57:04.060Z,37.61
2022-09-02T11:59:50.899Z,37.24
2022-09-02T12:02:36.241Z,37.67
2022-09-02T12:05:30.715Z,37.65
2022-09-02T12:08:00.011Z,36.87
2022-09-02T12:10:41.872Z,38.22
2022-09-02T12:13:11.343Z,38.23
2022-09-02T12:15:40.965Z,37.11
2022-09-02T12:18:14.220Z,38.26
2022-09-02T12:20:40.964Z,38.73
2022-09-02T12:23:10.086Z,38.74
2022-09-02T12:25:49.382Z,36.61
2022-09-02T12:28:24.188Z,37.05
2022-09-02T12:30:55.141Z,36.11
2022-09-02T12:33:35.548Z,36.13
2022-09-02T12:36:04.437Z,36.55
2022-09-02T12:38:38.206Z,35.45
2022-09-02T12:41:05.063Z,36.16
2022-09-02T12:43:45.406Z,36.28
2022-09-02T12:46:40.441Z,36.43
2022-09-02T12:49:27.329Z,35.99
2022-09-02T12:52:22.237Z,35.10
2022-09-02T12:54:50.397Z,36.15
2022-09-02T12:57:18.912Z,36.43
2022-09-02T12:59:47.760Z,37.04
2022-09-02T13:02:14.373Z,37.35
2022-09-02T13:05:18.381Z,37.03
2022-09-02T13:08:20.248Z,37.60
2022-09-02T13:11:05.618Z,36.52
2022-09-02T13:13:58.121Z,36.00
2022-09-02T13:16:39.572Z,36.18
2022-09-02T13:19:27.435Z,36.05
2022-09-02T13:22:03.748Z,35.20
2022-09-02T13:24:33.299Z,35.90
2022-09-02T13:27:20.327Z,35.73
2022-09-02T13:29:59.334Z,35.95
2022-09-02T13:32:29.148Z,36.42
2022-09-02T13:34:59.265Z,35.13
2022-09-02T13:37:37.193Z,34.95
2022-09-02T13:40:27.129Z,35.96
2022-09-02T13:42:59.039Z,34.88
2022-09-02T13:45:27.944Z,35.90
2022-09-02T13:47:57.696Z,35.08
2022-09-02T13:50:30.289Z,35.44
2022-09-02T13:55:53.784Z,34.44
2022-09-02T13:58:29.292Z,35.21
2022-09-02T14:01:17.397Z,34.14
2022-09-02T14:03:49.443Z,33.56
2022-09-02T14:06:18.410Z,34.18
2022-09-02T14:08:45.763Z,33.58
2022-09-02T14:11:17.609Z,33.76
2022-09-02T14:13:48.571Z,34.21
2022-09-02T14:16:29.516Z,34.86
2022-09-02T14:19:07.553Z,34.10
2022-09-02T14:21:35.684Z,35.30
2022-09-02T14:24:03.091Z,34.89
2022-09-02T14:26:38.557Z,34.15
2022-09-02T14:29:06.498Z,34.69
2022-09-02T14:31:33.794Z,34.40
2022-09-02T14:34:01.642Z,34.68
2022-09-02T14:36:33.741Z,34.90
2022-09-02T14:39:18.015Z,34.71
2022-09-02T14:41:50.508Z,33.87
2022-09-02T14:44:21.912Z,33.83
2022-09-02T14:46:56.998Z,33.56
2022-09-02T14:49:29.938Z,33.06
2022-09-02T14:51:59.581Z,32.28
2022-09-02T14:54:39.511Z,31.94
2022-09-02T14:57:26.602Z,32.14
2022-09-02T14:59:54.260Z,31.55
2022-09-02T15:02:26.606Z,30.76
2022-09-02T15:04:57.945Z,31.73
2022-09-02T15:07:25.851Z,32.10
2022-09-02T15:09:52.576Z,32.13
2022-09-02T15:12:34.112Z,31.39
2022-09-02T15:15:01.109Z,30.32
2022-09-02T15:17:28.143Z,30.69
2022-09-02T15:19:54.936Z,30.92
2022-09-02T15:22:24.466Z,31.20
2022-09-02T15:24:51.888Z,29.59
2022-09-02T15:27:18.981Z,29.49
2022-09-02T15:29:49.273Z,28.94
2022-09-02T15:32:16.380Z,28.46
2022-09-02T15:34:43.225Z,27.96
2022-09-02T15:37:13.039Z,28.66
2022-09-02T15:39:40.292Z,27.93
2022-09-02T15:42:07.097Z,28.55
2022-09-02T15:44:33.850Z,28.12
2022-09-02T15:47:00.585Z,28.16
2022-09-02T15:49:27.373Z,28.39
2022-09-02T15:51:55.243Z,28.25
2022-09-02T15:54:24.198Z,28.85
2022-09-02T15:56:55.866Z,27.94
2022-09-02T15:59:23.120Z,28.04
2022-09-02T16:01:52.273Z,28.18
2022-09-02T16:04:19.300Z,28.64
2022-09-02T16:06:48.020Z,28.59
2022-09-02T16:09:17.207Z,26.76
2022-09-02T16:11:46.341Z,26.98
2022-09-02T16:14:13.177Z,26.86
2022-09-02T16:16:39.971Z,27.06
2022-09-02T16:19:06.979Z,26.89
2022-09-02T16:21:34.341Z,27.34
2022-09-02T16:24:01.085Z,28.02
2022-09-02T16:26:29.842Z,26.97
2022-09-02T16:28:59.884Z,27.44
2022-09-02T16:31:29.162Z,27.97
2022-09-02T16:33:58.362Z,27.85
2022-09-02T16:36:26.848Z,28.52
2022-09-02T16:39:00.425Z,28.30
2022-09-02T16:41:30.129Z,27.62
2022-09-02T16:43:59.310Z,27.49
2022-09-02T16:46:27.465Z,27.87
2022-09-02T16:48:54.731Z,27.76
2022-09-02T16:51:22.921Z,28.12
2022-09-02T16:54:03.640Z,27.53
2022-09-02T16:56:31.357Z,28.12
2022-09-02T16:59:03.198Z,27.87
2022-09-02T17:01:32.587Z,27.34
2022-09-02T17:04:00.450Z,27.41
2022-09-02T17:06:28.084Z,29.22
2022-09-02T17:08:55.367Z,28.43
2022-09-02T17:11:28.604Z,28.85
2022-09-02T17:14:03.806Z,28.56
2022-09-02T17:16:37.399Z,28.59
2022-09-02T17:19:05.174Z,29.58
2022-09-02T17:21:32.005Z,29.57
2022-09-02T17:24:05.499Z,30.14
2022-09-02T17:29:06.514Z,30.70
2022-09-02T17:31:33.950Z,31.01
2022-09-02T17:34:02.478Z,31.54
2022-09-02T17:36:31.004Z,31.84
2022-09-02T17:39:00.327Z,32.30
2022-09-02T17:41:27.258Z,32.88
2022-09-02T17:43:53.882Z,33.34
2022-09-02T17:46:21.140Z,33.48
2022-09-02T17:49:12.861Z,34.36
2022-09-02T17:51:34.920Z,34.78
2022-09-02T17:54:01.851Z,35.08
2022-09-02T17:56:39.595Z,35.79
2022-09-02T17:59:27.762Z,36.20
2022-09-02T18:02:09.383Z,36.64
2022-09-02T18:05:03.002Z,37.39
2022-09-02T18:07:57.041Z,37.24
2022-09-02T18:10:23.658Z,37.28
2022-09-02T18:12:50.245Z,37.53
2022-09-02T18:15:18.476Z,38.40
2022-09-02T18:17:49.568Z,38.49
2022-09-02T18:20:41.850Z,40.14
2022-09-02T18:23:54.855Z,40.33
2022-09-02T18:26:52.434Z,40.64
2022-09-02T18:30:08.739Z,40.22
2022-09-02T18:33:02.825Z,41.24
2022-09-02T18:36:07.193Z,41.75
2022-09-02T18:38:46.950Z,41.50
2022-09-02T18:41:28.851Z,41.96
2022-09-02T18:44:20.848Z,42.80
2022-09-02T18:46:57.054Z,42.47
2022-09-02T18:49:25.839Z,41.57
2022-09-02T18:51:58.805Z,42.93
2022-09-02T18:54:33.984Z,42.60
2022-09-02T18:57:08.011Z,43.37
2022-09-02T18:59:47.199Z,43.61
2022-09-02T19:02:28.383Z,43.60
2022-09-02T19:04:58.232Z,43.20
2022-09-02T19:12:51.941Z,43.01
2022-09-02T19:15:19.212Z,43.42
2022-09-02T19:17:45.762Z,43.41
2022-09-02T19:20:12.306Z,43.92
2022-09-02T19:22:46.879Z,46.19
2022-09-02T19:25:19.218Z,45.52
2022-09-02T19:27:48.268Z,44.88
2022-09-02T19:30:17.923Z,45.09
2022-09-02T19:32:50.902Z,46.17
2022-09-02T19:35:20.027Z,45.10
2022-09-02T19:37:51.185Z,45.63
2022-09-02T19:40:22.622Z,46.92
2022-09-02T19:42:49.212Z,45.65
2022-09-02T19:45:16.801Z,45.67
2022-09-02T19:48:05.965Z,45.65
2022-09-02T19:50:30.443Z,45.78
2022-09-02T19:52:57.022Z,45.61
2022-09-02T19:55:23.608Z,45.87
2022-09-02T19:57:50.218Z,46.24
2022-09-02T20:00:17.359Z,46.41
2022-09-02T20:02:43.913Z,46.45
2022-09-02T20:05:12.888Z,46.59
2022-09-02T20:07:39.852Z,46.64
2022-09-02T20:10:07.939Z,46.54
2022-09-02T20:12:35.134Z,47.43
2022-09-02T20:15:02.290Z,46.53
2022-09-02T20:17:28.817Z,46.65
2022-09-02T20:19:55.704Z,46.99
2022-09-02T20:22:22.521Z,47.01
2022-09-02T20:24:49.112Z,47.14
2022-09-02T20:27:35.919Z,47.09
2022-09-02T20:30:15.358Z,48.71
2022-09-02T20:33:14.832Z,48.12
2022-09-02T20:36:05.768Z,49.14
2022-09-02T20:38:43.951Z,49.38
2022-09-02T20:41:27.178Z,48.92
2022-09-02T20:44:37.653Z,49.13
2022-09-02T20:47:41.245Z,48.65
2022-09-02T20:50:33.168Z,48.28
2022-09-02T20:53:27.762Z,49.07
2022-09-02T20:56:02.084Z,48.26
2022-09-02T20:58:36.677Z,48.02
2022-09-02T21:01:07.504Z,48.92
2022-09-02T21:03:58.333Z,49.07
2022-09-02T21:06:30.478Z,48.81
2022-09-02T21:09:08.815Z,49.38
2022-09-02T21:11:51.903Z,49.91
2022-09-02T21:14:23.806Z,50.08
2022-09-02T21:17:00.879Z,50.38
2022-09-02T21:19:41.548Z,50.48
2022-09-02T21:22:19.822Z,49.86
2022-09-02T21:25:00.831Z,49.81
2022-09-02T21:28:05.071Z,49.93
2022-09-02T21:30:38.675Z,49.86
2022-09-02T21:33:10.146Z,50.18
2022-09-02T21:35:47.429Z,50.09
2022-09-02T21:38:40.912Z,50.01
2022-09-02T21:41:35.410Z,50.81
2022-09-02T21:44:23.081Z,50.20
2022-09-02T21:47:18.656Z,51.70
2022-09-02T21:50:06.289Z,51.56
2022-09-02T21:52:55.786Z,50.43
2022-09-02T21:55:35.016Z,50.89
2022-09-02T21:58:10.831Z,49.85
2022-09-02T22:00:45.675Z,51.60
2022-09-02T22:03:38.466Z,51.81
2022-09-02T22:06:13.620Z,51.96
2022-09-02T22:08:49.115Z,51.70
2022-09-02T22:11:29.624Z,52.07
2022-09-02T22:13:59.683Z,51.03
2022-09-02T22:16:52.669Z,52.17
2022-09-02T22:19:22.041Z,51.29
2022-09-02T22:21:52.303Z,51.31
2022-09-02T22:24:22.303Z,51.28
2022-09-02T22:26:53.009Z,51.96
2022-09-02T22:29:48.049Z,52.53
2022-09-02T22:32:19.048Z,51.93
2022-09-02T22:34:55.854Z,52.35
2022-09-02T22:37:28.220Z,52.33
2022-09-02T22:39:56.239Z,52.19
2022-09-02T22:42:33.098Z,54.87
2022-09-02T22:45:02.274Z,52.51
2022-09-02T22:47:32.902Z,52.71
2022-09-02T22:50:02.258Z,52.94
2022-09-02T22:52:34.501Z,53.75
2022-09-02T22:55:01.105Z,52.23
2022-09-02T22:58:00.958Z,53.57
2022-09-02T23:00:32.160Z,52.20
2022-09-02T23:03:14.261Z,53.41
2022-09-02T23:05:58.044Z,53.62
2022-09-02T23:08:24.736Z,52.11
2022-09-02T23:11:07.656Z,53.65
2022-09-02T23:13:52.726Z,52.12
2022-09-02T23:16:56.644Z,53.17
2022-09-02T23:19:32.244Z,53.13
2022-09-02T23:22:07.516Z,53.01
2022-09-02T23:24:46.713Z,53.21
2022-09-02T23:27:28.260Z,53.75
2022-09-02T23:29:54.940Z,52.58
2022-09-02T23:32:48.598Z,54.11
2022-09-02T23:35:22.928Z,53.65
2022-09-02T23:38:11.001Z,53.33
2022-09-02T23:40:54.149Z,53.65
2022-09-02T23:43:20.900Z,52.50
2022-09-02T23:45:48.020Z,53.00
2022-09-02T23:48:24.766Z,54.31
2022-09-02T23:51:26.635Z,54.23
2022-09-02T23:54:21.316Z,54.53
2022-09-02T23:57:09.115Z,53.87
2022-09-02T23:59:41.771Z,54.03
